Aeroporto :
LOGIN :

Iscrizione | Disclaimer

   EN    FR    IT 

 










Sommario :    VFR   VFR Marginale   IFR   IFR Intensivo   IFR Molto Intensivo
Visibilità : 
Base nubi : 
>= 8 km
>= 3000ft
5 / 8 km
1000 / 3000 ft
1500m / 5 km
500 / 1000 ft
800 / 1500m
200 / 500 ft
< 800m
< 200 ft
Simboli :   Temporali  Nebbia  Neve Forte  Precipitazioni Forti  Vento > 20 kt
SIGMETs :   Varie  Temporali  Ghiacco  Turbolenza  Onda orograficha  Ceneri Vulcaniche






- Altitudine del aeroporto : 18 ft
- Codice IATA : KDL


EEKA - Kardla

ULTIMO METAR :
  • 010420Z 07005KT 010V100 9999 BKN003 11/11 Q1017

METARs OBSOLETI :
  • 010350Z 05006KT 010V100 8000 BKN001 11/11 Q1017
  • 010320Z 07006KT 3300 BR OVC001 11/11 Q1017
  • 010250Z 08005KT 2000 BR VV001 11/11 Q1017

TAF TAF EEKA
Valido dal 01 a 04 ore il 01 a 10 ore UTC


010307Z 0104/0110 09010KT 3000 BR BKN005
TEMPO 0104/0106 1000 BR BCFG VV002
BECMG 0106/0107 9999 NSW SCT010



MetMap, La meteo Aeronautica in un colpo d'occhio ! - Copyright ORBIFLY Dicembre 2007 - Disclaimer

ORBIFLY MET'MAP TEAM :

Programmazione e sviluppo : Alexandra Zaïnal
Concezione : Baudouin d'Aumeries
Aiuto per la programmazione : Marc-Olivier Méhu
Supporto tecnico e logistico : Manuel Goepfert
Aiuto per la traduzione : Arnaldo La Scala

Contatto : metmap@orbifly.com




FONTI E CREDITI :

   NOAA